Aviation Digital Data Service (ADDS)

Output produced by METARs form (2230 UTC 28 July 2014)
found at http://aviationweather.gov/adds/metars/
 
KGFL 282215Z 2822/2918 07004KT P6SM VCSH SCT022 BKN030 OVC060 
     TEMPO 2822/2824 1SM -TSRA BR BKN015CB 
     FM290000 34010G16KT P6SM VCSH BKN015 OVC030 
     FM290500 31003KT 4SM BR SKC 
     FM290900 VRB03KT 2SM BR SCT003 
     FM291300 30005KT P6SM SCT040